This is the latest recevied weather packets stored in our database for station/object WA1DLZ. If no packets are shown the sender has not sent any weather packets the latest 10 day(s).
| Time | Temp. | Humidity | Pressure | Rain* | Wind** | Luminosity | Snow |
|---|---|---|---|---|---|---|---|
| 1777683303 | 7.22° C | 55% | 1010.4 hPa | 0 mm | - | - | - |
| 1777682703 | 7.78° C | 53% | 1010.3 hPa | 0 mm | - | - | - |
| 1777681203 | 8.89° C | 48% | 1009.9 hPa | 0 mm | - | - | - |
| 1777680603 | 9.44° C | 46% | 1009.6 hPa | 0 mm | - | - | - |
| 1777678503 | 10.56° C | 42% | 1009 hPa | 0 mm | - | - | - |
| 1777677903 | 10.56° C | 42% | 1008.8 hPa | 0 mm | - | - | - |
| 1777675503 | 12.78° C | 39% | 1008.1 hPa | 0 mm | - | - | - |
| 1777672803 | 13.89° C | 37% | 1007.6 hPa | 0 mm | - | - | - |
| 1777672203 | 14.44° C | 37% | 1007.5 hPa | 0 mm | - | - | - |
| 1777671303 | 14.44° C | 36% | 1007.3 hPa | 0 mm | - | - | - |
| 1777669203 | 15° C | 35% | 1006.9 hPa | 0 mm | - | - | - |
| 1777668303 | 15.56° C | 38% | 1006.8 hPa | 0 mm | - | - | - |
| 1777668003 | 15.56° C | 38% | 1006.8 hPa | 0 mm | - | - | - |
| 1777665303 | 15° C | 38% | 1006.4 hPa | 0 mm | - | - | - |
| 1777664403 | 15° C | 39% | 1006.4 hPa | 0 mm | - | - | - |
| 1777663203 | 15.56° C | 45% | 1006.3 hPa | 0 mm | - | - | - |
| 1777662003 | 15° C | 48% | 1006.3 hPa | 0 mm | - | - | - |
| 1777661703 | 15° C | 47% | 1006.3 hPa | 0 mm | - | - | - |
| 1777661404 | 15° C | 46% | 1006.2 hPa | 0 mm | - | - | - |
| 1777654503 | 13.33° C | 54% | 1006.2 hPa | 0 mm | - | - | - |
| 1777653604 | 13.33° C | 54% | 1006.2 hPa | 0 mm | - | - | - |
| 1777651803 | 12.78° C | 58% | 1006.4 hPa | 0 mm | - | - | - |
| 1777649404 | 11.67° C | 59% | 1006.6 hPa | 0 mm | - | - | - |
| 1777647304 | 11.11° C | 64% | 1006.6 hPa | 0 mm | - | - | - |
| 1777647004 | 11.11° C | 68% | 1006.6 hPa | 0 mm | - | - | - |
* Rain latest hour (hover to see other rain measurements)
** Current wind speed in m/s (hover to see current wind gust speed)